createdAt,value
2019-05-29T00:01:14.071Z,14.63
2019-05-29T00:03:38.566Z,17.45
2019-05-29T00:06:08.059Z,17.95
2019-05-29T00:08:36.551Z,18.37
2019-05-29T00:11:05.969Z,15.50
2019-05-29T00:13:34.363Z,19.85
2019-05-29T00:16:02.595Z,17.48
2019-05-29T00:18:30.820Z,17.95
2019-05-29T00:20:59.037Z,19.90
2019-05-29T00:23:27.263Z,21.65
2019-05-29T00:25:55.560Z,16.10
2019-05-29T00:28:23.832Z,24.92
2019-05-29T00:30:52.059Z,23.07
2019-05-29T00:33:20.271Z,21.50
2019-05-29T00:35:48.476Z,23.55
2019-05-29T00:38:16.732Z,23.67
2019-05-29T00:40:44.927Z,22.87
2019-05-29T00:43:13.268Z,24.75
2019-05-29T00:45:41.525Z,20.30
2019-05-29T00:48:09.735Z,24.50
2019-05-29T00:50:37.964Z,25.20
2019-05-29T00:53:06.172Z,26.50
2019-05-29T00:55:34.386Z,26.48
2019-05-29T00:58:02.601Z,25.75
2019-05-29T01:00:30.807Z,30.25
2019-05-29T01:02:59.047Z,25.60
2019-05-29T01:05:27.273Z,26.05
2019-05-29T01:07:55.544Z,19.98
2019-05-29T01:10:23.768Z,27.27
2019-05-29T01:12:55.186Z,23.90
2019-05-29T01:15:23.490Z,23.65
2019-05-29T01:17:51.834Z,20.05
2019-05-29T01:20:20.084Z,24.30
2019-05-29T01:22:48.269Z,24.12
2019-05-29T01:25:16.583Z,25.85
2019-05-29T01:27:44.784Z,22.77
2019-05-29T01:30:13.226Z,22.60
2019-05-29T01:32:41.593Z,23.02
2019-05-29T01:35:09.879Z,21.33
2019-05-29T01:37:38.084Z,27.40
2019-05-29T01:40:19.419Z,21.60
2019-05-29T01:42:36.377Z,23.27
2019-05-29T01:45:08.256Z,18.80
2019-05-29T01:47:36.241Z,20.45
2019-05-29T01:50:05.681Z,15.50
2019-05-29T01:52:33.893Z,12.88
2019-05-29T01:55:02.101Z,23.12
2019-05-29T01:57:30.333Z,19.35
2019-05-29T01:59:58.535Z,15.38
2019-05-29T02:02:28.141Z,15.72
2019-05-29T02:04:56.443Z,15.73
2019-05-29T02:07:24.947Z,12.30
2019-05-29T02:09:53.159Z,12.98
2019-05-29T02:12:22.326Z,17.62
2019-05-29T02:14:50.748Z,14.43
2019-05-29T02:17:19.715Z,16.27
2019-05-29T02:19:48.043Z,18.17
2019-05-29T02:22:16.965Z,13.03
2019-05-29T02:24:45.247Z,16.27
2019-05-29T02:27:13.439Z,15.85
2019-05-29T02:29:41.656Z,15.75
2019-05-29T02:32:09.871Z,15.78
2019-05-29T02:34:38.094Z,15.13
2019-05-29T02:37:06.333Z,15.55
2019-05-29T02:39:34.570Z,18.52
2019-05-29T02:42:02.791Z,17.73
2019-05-29T02:44:31.069Z,19.90
2019-05-29T02:46:59.285Z,21.42
2019-05-29T02:49:28.092Z,13.95
2019-05-29T02:51:56.493Z,17.05
2019-05-29T02:54:25.388Z,16.97
2019-05-29T02:56:54.644Z,18.90
2019-05-29T02:59:23.439Z,20.75
2019-05-29T03:01:52.247Z,19.60
2019-05-29T03:04:21.703Z,17.37
2019-05-29T03:06:50.058Z,18.20
2019-05-29T03:09:18.295Z,22.35
2019-05-29T03:11:46.481Z,14.90
2019-05-29T03:14:14.692Z,16.82
2019-05-29T03:16:42.913Z,17.65
2019-05-29T03:19:11.121Z,18.62
2019-05-29T03:21:39.332Z,23.35
2019-05-29T03:24:07.542Z,17.57
2019-05-29T03:26:35.765Z,20.80
2019-05-29T03:29:03.985Z,18.23
2019-05-29T03:31:41.933Z,25.85
2019-05-29T03:34:02.283Z,17.48
2019-05-29T03:36:35.785Z,19.20
2019-05-29T03:39:00.693Z,25.43
2019-05-29T03:41:30.200Z,19.48
2019-05-29T03:43:58.489Z,14.60
2019-05-29T03:46:35.468Z,19.42
2019-05-29T03:48:56.658Z,10.25
2019-05-29T03:51:24.935Z,18.92
2019-05-29T03:53:53.135Z,22.27
2019-05-29T03:56:21.345Z,16.62
2019-05-29T03:58:49.563Z,15.68
2019-05-29T04:01:17.786Z,25.15
2019-05-29T04:03:45.996Z,13.18
2019-05-29T04:06:14.212Z,14.50
2019-05-29T04:08:42.421Z,13.62
2019-05-29T04:11:10.640Z,13.20
2019-05-29T04:13:39.253Z,16.27
2019-05-29T04:16:07.663Z,14.43
2019-05-29T04:18:36.051Z,14.47
2019-05-29T04:21:04.764Z,14.23
2019-05-29T04:23:36.297Z,12.43
2019-05-29T04:26:04.666Z,16.77
2019-05-29T04:28:34.766Z,17.77
2019-05-29T04:31:02.892Z,14.23
2019-05-29T04:33:32.486Z,16.27
2019-05-29T04:36:00.914Z,16.25
2019-05-29T04:38:30.895Z,9.10
2019-05-29T04:40:59.053Z,15.03
2019-05-29T04:43:28.623Z,9.70
2019-05-29T04:45:57.109Z,11.33
2019-05-29T04:48:25.357Z,11.78
2019-05-29T04:50:53.637Z,11.22
2019-05-29T04:53:21.848Z,11.50
2019-05-29T04:55:50.052Z,9.20
2019-05-29T04:58:18.265Z,9.05
2019-05-29T05:00:58.508Z,13.58
2019-05-29T05:03:16.415Z,13.10
2019-05-29T05:05:44.620Z,12.78
2019-05-29T05:08:12.832Z,12.23
2019-05-29T05:10:41.450Z,10.30
2019-05-29T05:13:09.627Z,9.08
2019-05-29T05:15:38.103Z,15.83
2019-05-29T05:18:06.464Z,10.08
2019-05-29T05:20:36.005Z,11.33
2019-05-29T05:23:04.931Z,18.60
2019-05-29T05:25:34.141Z,11.05
2019-05-29T05:28:02.579Z,14.10
2019-05-29T05:30:30.767Z,10.93
2019-05-29T05:32:58.998Z,9.83
2019-05-29T05:35:27.283Z,10.40
2019-05-29T05:37:55.527Z,8.00
2019-05-29T05:40:23.737Z,11.15
2019-05-29T05:42:51.953Z,8.73
2019-05-29T05:45:20.217Z,8.33
2019-05-29T05:47:57.028Z,11.93
2019-05-29T05:50:18.373Z,13.00
2019-05-29T05:52:46.609Z,13.00
2019-05-29T05:55:14.819Z,8.15
2019-05-29T05:57:43.035Z,11.88
2019-05-29T06:00:11.442Z,12.82
2019-05-29T06:02:40.147Z,10.32
2019-05-29T06:05:08.552Z,9.00
2019-05-29T06:07:37.850Z,8.28
2019-05-29T06:10:06.863Z,9.70
2019-05-29T06:12:36.406Z,7.92
2019-05-29T06:15:06.444Z,6.73
2019-05-29T06:17:34.688Z,6.22
2019-05-29T06:20:04.944Z,9.35
2019-05-29T06:22:33.211Z,5.33
2019-05-29T06:25:01.459Z,3.20
2019-05-29T06:27:29.751Z,6.70
2019-05-29T06:29:57.993Z,8.13
2019-05-29T06:32:26.199Z,6.17
2019-05-29T06:34:54.490Z,5.45
2019-05-29T06:37:22.795Z,7.87
2019-05-29T06:39:51.043Z,5.35
2019-05-29T06:42:19.349Z,5.53
2019-05-29T06:44:49.519Z,5.87
2019-05-29T06:47:17.633Z,4.53
2019-05-29T06:49:46.312Z,2.72
2019-05-29T06:52:14.651Z,2.47
2019-05-29T06:54:44.097Z,4.55
2019-05-29T06:57:12.600Z,3.35
2019-05-29T06:59:42.292Z,2.40
2019-05-29T07:02:10.756Z,2.87
2019-05-29T07:04:38.957Z,5.25
2019-05-29T07:07:07.172Z,7.78
2019-05-29T07:09:35.375Z,8.80
2019-05-29T07:12:03.654Z,7.55
2019-05-29T07:14:31.881Z,6.08
2019-05-29T07:17:00.095Z,4.10
2019-05-29T07:19:47.051Z,4.55
2019-05-29T07:21:58.243Z,4.05
2019-05-29T07:24:26.467Z,3.98
2019-05-29T07:26:54.692Z,5.22
2019-05-29T07:29:22.959Z,3.75
2019-05-29T07:31:51.270Z,5.05
2019-05-29T07:34:19.516Z,4.85
2019-05-29T07:36:48.195Z,4.45
2019-05-29T07:39:16.642Z,3.72
2019-05-29T07:41:45.763Z,8.80
2019-05-29T07:44:14.132Z,3.55
2019-05-29T07:46:42.384Z,7.28
2019-05-29T07:49:10.592Z,6.72
2019-05-29T07:51:40.417Z,5.55
2019-05-29T07:54:08.914Z,3.92
2019-05-29T07:56:38.260Z,7.90
2019-05-29T07:59:06.603Z,4.47
2019-05-29T08:01:34.813Z,3.60
2019-05-29T08:04:03.042Z,6.58
2019-05-29T08:06:31.239Z,5.22
2019-05-29T08:08:59.448Z,4.40
2019-05-29T08:11:27.660Z,5.25
2019-05-29T08:13:55.855Z,7.58
2019-05-29T08:16:24.065Z,3.67
2019-05-29T08:18:53.104Z,5.70
2019-05-29T08:21:21.705Z,4.35
2019-05-29T08:23:50.771Z,4.85
2019-05-29T08:26:19.180Z,2.97
2019-05-29T08:28:48.789Z,2.37
2019-05-29T08:31:17.187Z,5.25
2019-05-29T08:33:45.384Z,6.17
2019-05-29T08:36:13.620Z,3.72
2019-05-29T08:38:42.951Z,7.53
2019-05-29T08:41:11.780Z,3.25
2019-05-29T08:43:39.988Z,4.40
2019-05-29T08:46:08.200Z,4.75
2019-05-29T08:48:36.419Z,5.62
2019-05-29T08:51:04.620Z,6.60
2019-05-29T08:53:32.847Z,5.58
2019-05-29T08:56:01.049Z,3.70
2019-05-29T08:58:29.268Z,4.95
2019-05-29T09:00:57.471Z,4.75
2019-05-29T09:03:25.677Z,2.58
2019-05-29T09:06:06.899Z,3.83
2019-05-29T09:08:23.832Z,5.35
2019-05-29T09:10:53.488Z,2.67
2019-05-29T09:13:21.995Z,5.17
2019-05-29T09:15:50.279Z,3.67
2019-05-29T09:18:19.764Z,6.78
2019-05-29T09:21:01.779Z,5.17
2019-05-29T09:25:47.121Z,3.42
2019-05-29T09:28:16.615Z,6.78
2019-05-29T09:30:45.144Z,5.85
2019-05-29T09:33:15.315Z,7.78
2019-05-29T09:35:43.310Z,4.17
2019-05-29T09:38:11.507Z,5.28
2019-05-29T09:40:39.723Z,4.55
2019-05-29T09:43:07.952Z,3.40
2019-05-29T09:45:36.157Z,5.42
2019-05-29T09:48:04.484Z,3.45
2019-05-29T09:50:48.932Z,3.15
2019-05-29T09:53:04.071Z,5.65
2019-05-29T09:55:32.584Z,4.83
2019-05-29T09:58:00.839Z,3.72
2019-05-29T10:00:29.123Z,6.80
2019-05-29T10:02:57.358Z,2.90
2019-05-29T10:05:25.560Z,6.12
2019-05-29T10:07:55.120Z,2.98
2019-05-29T10:10:23.712Z,2.52
2019-05-29T10:12:51.925Z,8.50
2019-05-29T10:15:20.131Z,4.85
2019-05-29T10:17:48.351Z,4.78
2019-05-29T10:20:16.623Z,5.60
2019-05-29T10:22:44.836Z,4.83
2019-05-29T10:25:13.045Z,5.05
2019-05-29T10:27:41.263Z,5.47
2019-05-29T10:30:09.770Z,3.25
2019-05-29T10:32:37.982Z,3.37
2019-05-29T10:35:06.248Z,5.42
2019-05-29T10:37:34.466Z,5.53
2019-05-29T10:40:03.645Z,4.08
2019-05-29T10:42:31.845Z,6.92
2019-05-29T10:45:00.063Z,4.08
2019-05-29T10:47:28.263Z,3.72
2019-05-29T10:49:56.483Z,7.33
2019-05-29T10:52:24.684Z,4.97
2019-05-29T10:54:52.904Z,4.12
2019-05-29T10:57:21.126Z,3.20
2019-05-29T10:59:49.344Z,3.37
2019-05-29T11:02:17.549Z,3.30
2019-05-29T11:04:49.454Z,6.62
2019-05-29T11:09:45.051Z,4.08
2019-05-29T11:12:13.221Z,1.20
2019-05-29T11:14:41.431Z,2.75
2019-05-29T11:17:09.639Z,2.02
2019-05-29T11:19:37.857Z,4.25
2019-05-29T11:22:25.104Z,5.35
2019-05-29T11:27:03.571Z,5.92
2019-05-29T11:29:31.790Z,2.08
2019-05-29T11:32:00.020Z,3.83
2019-05-29T11:34:28.249Z,2.58
2019-05-29T11:36:56.489Z,6.12
2019-05-29T11:39:24.703Z,4.03
2019-05-29T11:41:52.905Z,1.98
2019-05-29T11:44:21.129Z,3.42
2019-05-29T11:46:50.154Z,2.90
2019-05-29T11:49:18.535Z,3.62
2019-05-29T11:51:46.736Z,2.95
2019-05-29T11:54:14.976Z,2.47
2019-05-29T11:56:43.189Z,3.98
2019-05-29T11:59:11.401Z,4.62
2019-05-29T12:01:49.784Z,1.47
2019-05-29T12:04:24.367Z,3.95
2019-05-29T12:06:39.479Z,3.15
2019-05-29T12:09:09.659Z,3.40
2019-05-29T12:14:05.548Z,2.45
2019-05-29T12:16:33.782Z,2.70
2019-05-29T12:19:02.041Z,2.98
2019-05-29T12:21:30.321Z,2.33
2019-05-29T12:23:58.549Z,3.67
2019-05-29T12:26:26.769Z,3.50
2019-05-29T12:29:03.715Z,4.03
2019-05-29T12:31:24.972Z,3.35
2019-05-29T12:33:53.186Z,8.53
2019-05-29T12:36:21.431Z,7.80
2019-05-29T12:38:49.621Z,2.65
2019-05-29T12:41:17.824Z,2.60
2019-05-29T12:43:46.051Z,4.83
2019-05-29T12:46:14.260Z,4.20
2019-05-29T12:48:42.489Z,6.70
2019-05-29T12:51:10.680Z,8.00
2019-05-29T12:53:38.896Z,4.40
2019-05-29T12:56:07.116Z,15.72
2019-05-29T12:58:35.324Z,12.65
2019-05-29T13:01:05.134Z,2.75
2019-05-29T13:03:34.367Z,3.80
2019-05-29T13:06:02.581Z,2.55
2019-05-29T13:08:30.796Z,2.25
2019-05-29T13:10:59.004Z,1.47
2019-05-29T13:13:27.205Z,2.90
2019-05-29T13:15:56.614Z,3.27
2019-05-29T13:18:25.027Z,1.22
2019-05-29T13:20:53.220Z,1.95
2019-05-29T13:23:21.424Z,3.75
2019-05-29T13:25:49.637Z,3.50
2019-05-29T13:28:17.836Z,0.90
2019-05-29T13:30:46.047Z,1.72
2019-05-29T13:33:14.252Z,3.58
2019-05-29T13:35:42.473Z,6.92
2019-05-29T13:38:10.692Z,2.42
2019-05-29T13:40:38.886Z,7.80
2019-05-29T13:43:15.223Z,2.45
2019-05-29T13:45:37.111Z,2.05
2019-05-29T13:48:05.565Z,3.87
2019-05-29T13:50:33.833Z,2.02
2019-05-29T13:53:03.377Z,1.35
2019-05-29T13:55:31.833Z,1.72
2019-05-29T13:58:00.059Z,7.40
2019-05-29T14:00:34.015Z,2.45
2019-05-29T14:02:58.440Z,3.83
2019-05-29T14:05:26.804Z,1.80
2019-05-29T14:07:55.016Z,1.12
2019-05-29T14:10:23.245Z,3.33
2019-05-29T14:12:51.448Z,2.67
2019-05-29T14:15:19.659Z,3.00
2019-05-29T14:17:47.879Z,3.65
2019-05-29T14:20:16.460Z,2.22
2019-05-29T14:22:44.667Z,4.67
2019-05-29T14:25:12.882Z,7.25
2019-05-29T14:27:41.085Z,2.70
2019-05-29T14:30:10.928Z,2.22
2019-05-29T14:35:08.708Z,2.52
2019-05-29T14:37:36.992Z,3.17
2019-05-29T14:40:05.715Z,2.22
2019-05-29T14:42:34.001Z,2.08
2019-05-29T14:45:02.426Z,2.47
2019-05-29T14:47:31.923Z,4.22
2019-05-29T14:50:00.140Z,2.40
2019-05-29T14:52:28.326Z,2.80
2019-05-29T14:54:56.531Z,1.95
2019-05-29T14:57:26.374Z,2.67
2019-05-29T15:02:24.061Z,3.33
2019-05-29T15:04:52.375Z,2.65
2019-05-29T15:07:22.828Z,2.77
2019-05-29T15:09:50.543Z,1.25
2019-05-29T15:12:18.736Z,3.33
2019-05-29T15:14:46.961Z,1.40
2019-05-29T15:17:15.524Z,2.42
2019-05-29T15:19:43.995Z,2.27
2019-05-29T15:22:13.957Z,2.52
2019-05-29T15:24:59.722Z,5.03
2019-05-29T15:27:12.097Z,2.47
2019-05-29T15:29:40.354Z,4.12
2019-05-29T15:32:08.556Z,3.83
2019-05-29T15:34:36.771Z,2.45
2019-05-29T15:37:04.977Z,2.87
2019-05-29T15:39:33.255Z,2.27
2019-05-29T15:42:01.484Z,2.17
2019-05-29T15:44:29.688Z,1.80
2019-05-29T15:46:57.888Z,5.37
2019-05-29T15:49:26.103Z,1.82
2019-05-29T15:51:54.406Z,1.77
2019-05-29T15:54:22.614Z,2.65
2019-05-29T15:56:50.835Z,0.68
2019-05-29T15:59:19.225Z,1.98
2019-05-29T16:01:47.562Z,4.00
2019-05-29T16:04:15.867Z,2.87
2019-05-29T16:06:44.048Z,5.72
2019-05-29T16:09:12.260Z,0.72
2019-05-29T16:11:40.490Z,1.90
2019-05-29T16:14:10.525Z,2.08
2019-05-29T16:16:38.978Z,4.03
2019-05-29T16:19:07.192Z,4.62
2019-05-29T16:21:35.399Z,3.35
2019-05-29T16:24:03.615Z,5.42
2019-05-29T16:26:31.835Z,2.33
2019-05-29T16:29:00.055Z,1.12
2019-05-29T16:31:28.264Z,7.30
2019-05-29T16:33:56.475Z,3.05
2019-05-29T16:36:24.708Z,2.20
2019-05-29T16:38:52.917Z,2.02
2019-05-29T16:41:21.999Z,1.50
2019-05-29T16:43:50.355Z,2.20
2019-05-29T16:46:20.708Z,4.47
2019-05-29T16:48:48.505Z,3.08
2019-05-29T16:51:16.742Z,1.37
2019-05-29T16:53:45.047Z,2.02
2019-05-29T16:56:13.297Z,2.15
2019-05-29T16:58:41.517Z,2.17
2019-05-29T17:01:09.743Z,1.47
2019-05-29T17:03:37.944Z,2.20
2019-05-29T17:06:06.171Z,2.52
2019-05-29T17:08:34.380Z,1.90
2019-05-29T17:11:05.048Z,2.98
2019-05-29T17:13:32.543Z,1.00
2019-05-29T17:16:00.774Z,0.93
2019-05-29T17:18:28.980Z,2.50
2019-05-29T17:20:57.199Z,0.40
2019-05-29T17:23:25.426Z,1.05
2019-05-29T17:26:09.223Z,3.75
2019-05-29T17:28:27.665Z,4.20
2019-05-29T17:30:53.494Z,2.60
2019-05-29T17:33:23.023Z,2.15
2019-05-29T17:35:51.386Z,0.98
2019-05-29T17:38:19.605Z,0.95
2019-05-29T17:40:47.804Z,0.65
2019-05-29T17:43:20.262Z,1.95
2019-05-29T17:45:45.941Z,2.20
2019-05-29T17:48:15.348Z,1.32
2019-05-29T17:50:43.845Z,2.77
2019-05-29T17:53:12.048Z,1.25
2019-05-29T17:55:40.272Z,2.15
2019-05-29T17:58:08.474Z,3.12
2019-05-29T18:00:36.790Z,1.55
2019-05-29T18:03:05.666Z,4.33
2019-05-29T18:05:36.797Z,3.50
2019-05-29T18:08:03.793Z,3.10
2019-05-29T18:10:32.021Z,4.00
2019-05-29T18:13:00.220Z,1.27
2019-05-29T18:15:28.424Z,1.98
2019-05-29T18:17:56.633Z,5.15
2019-05-29T18:20:25.872Z,3.85
2019-05-29T18:22:54.224Z,2.27
2019-05-29T18:25:22.424Z,4.17
2019-05-29T18:27:50.653Z,2.75
2019-05-29T18:30:19.950Z,2.37
2019-05-29T18:32:48.444Z,2.97
2019-05-29T18:35:16.670Z,1.32
2019-05-29T18:37:44.868Z,1.20
2019-05-29T18:40:13.092Z,2.90
2019-05-29T18:42:41.309Z,2.47
2019-05-29T18:45:20.544Z,3.33
2019-05-29T18:47:39.632Z,3.60
2019-05-29T18:50:08.223Z,4.15
2019-05-29T18:52:36.431Z,3.90
2019-05-29T18:55:07.756Z,2.27
2019-05-29T18:57:35.961Z,5.78
2019-05-29T19:00:09.239Z,3.15
2019-05-29T19:02:37.444Z,3.70
2019-05-29T19:05:06.303Z,6.58
2019-05-29T19:07:34.563Z,2.33
2019-05-29T19:10:06.223Z,4.33
2019-05-29T19:12:32.716Z,1.67
2019-05-29T19:15:00.985Z,1.75
2019-05-29T19:17:30.068Z,2.33
2019-05-29T19:19:58.408Z,4.22
2019-05-29T19:22:26.611Z,1.98
2019-05-29T19:24:54.829Z,4.80
2019-05-29T19:27:35.112Z,2.17
2019-05-29T19:29:52.977Z,4.03
2019-05-29T19:32:21.233Z,4.85
2019-05-29T19:34:49.472Z,2.50
2019-05-29T19:37:17.667Z,2.55
2019-05-29T19:39:45.899Z,4.42
2019-05-29T19:42:14.104Z,2.33
2019-05-29T19:44:42.307Z,3.92
2019-05-29T19:47:10.531Z,4.50
2019-05-29T19:49:38.746Z,3.52
2019-05-29T19:52:06.941Z,3.15
2019-05-29T19:54:35.741Z,4.12
2019-05-29T19:57:04.166Z,5.53
2019-05-29T19:59:32.367Z,5.12
2019-05-29T20:02:00.588Z,4.10
2019-05-29T20:04:28.808Z,4.70
2019-05-29T20:06:57.025Z,8.05
2019-05-29T20:09:25.224Z,5.42
2019-05-29T20:11:53.435Z,4.05
2019-05-29T20:14:21.654Z,7.50
2019-05-29T20:16:49.876Z,4.53
2019-05-29T20:19:18.084Z,8.45
2019-05-29T20:21:46.290Z,6.83
2019-05-29T20:24:14.496Z,10.23
2019-05-29T20:26:42.703Z,4.12
2019-05-29T20:29:10.916Z,5.83
2019-05-29T20:31:39.125Z,7.37
2019-05-29T20:34:07.348Z,6.53
2019-05-29T20:36:37.267Z,6.05
2019-05-29T20:39:07.228Z,7.95
2019-05-29T20:41:38.571Z,8.58
2019-05-29T20:44:05.376Z,8.35
2019-05-29T20:46:34.922Z,6.22
2019-05-29T20:49:03.267Z,6.97
2019-05-29T20:51:32.745Z,6.53
2019-05-29T20:54:01.423Z,8.43
2019-05-29T20:56:29.625Z,9.78
2019-05-29T20:58:57.845Z,7.65
2019-05-29T21:01:26.052Z,9.30
2019-05-29T21:03:54.259Z,14.63
2019-05-29T21:07:15.848Z,5.78
2019-05-29T21:09:43.400Z,9.43
2019-05-29T21:12:11.886Z,11.15
2019-05-29T21:14:40.096Z,12.10
2019-05-29T21:17:08.326Z,8.70
2019-05-29T21:19:36.609Z,7.70
2019-05-29T21:22:04.828Z,9.80
2019-05-29T21:24:34.439Z,9.73
2019-05-29T21:27:02.936Z,9.18
2019-05-29T21:29:31.277Z,6.22
2019-05-29T21:31:59.568Z,5.10
2019-05-29T21:34:27.779Z,10.18
2019-05-29T21:36:56.001Z,5.47
2019-05-29T21:39:24.233Z,7.92
2019-05-29T21:41:52.448Z,6.08
2019-05-29T21:44:20.666Z,6.00
2019-05-29T21:46:48.953Z,9.28
2019-05-29T21:49:17.148Z,6.50
2019-05-29T21:51:45.791Z,7.28
2019-05-29T21:54:14.171Z,8.75
2019-05-29T21:56:43.474Z,7.55
2019-05-29T21:59:11.972Z,5.78
2019-05-29T22:01:40.183Z,5.90
2019-05-29T22:04:08.464Z,10.28
2019-05-29T22:06:36.692Z,8.53
2019-05-29T22:09:08.151Z,5.40
2019-05-29T22:11:36.356Z,5.00
2019-05-29T22:14:04.581Z,7.67
2019-05-29T22:16:32.784Z,4.65
2019-05-29T22:19:04.133Z,4.62
2019-05-29T22:21:31.211Z,6.87
2019-05-29T22:23:59.441Z,6.42
2019-05-29T22:26:27.637Z,6.55
2019-05-29T22:28:55.843Z,6.60
2019-05-29T22:31:24.069Z,8.90
2019-05-29T22:33:53.418Z,8.60
2019-05-29T22:36:21.762Z,8.88
2019-05-29T22:38:51.295Z,7.00
2019-05-29T22:41:19.752Z,9.40
2019-05-29T22:43:47.951Z,8.33
2019-05-29T22:46:16.185Z,4.40
2019-05-29T22:48:44.399Z,4.00
2019-05-29T22:51:12.596Z,7.08
2019-05-29T22:53:40.819Z,4.08
2019-05-29T22:56:09.024Z,7.17
2019-05-29T22:58:37.346Z,5.90
2019-05-29T23:01:05.528Z,6.35
2019-05-29T23:03:33.752Z,6.12
2019-05-29T23:06:02.476Z,9.68
2019-05-29T23:08:30.861Z,9.03
2019-05-29T23:11:00.309Z,6.97
2019-05-29T23:13:28.648Z,7.37
2019-05-29T23:15:58.643Z,7.30
2019-05-29T23:18:27.020Z,6.75
2019-05-29T23:20:56.194Z,8.70
2019-05-29T23:23:24.621Z,7.03
2019-05-29T23:25:52.820Z,8.05
2019-05-29T23:28:21.283Z,5.83
2019-05-29T23:30:49.494Z,8.45
2019-05-29T23:33:17.707Z,9.13
2019-05-29T23:35:45.915Z,6.15
2019-05-29T23:38:14.124Z,10.03
2019-05-29T23:40:42.509Z,6.50
2019-05-29T23:43:10.716Z,7.03
2019-05-29T23:45:38.924Z,5.65
2019-05-29T23:48:07.149Z,7.15
2019-05-29T23:50:35.348Z,8.65
2019-05-29T23:53:04.023Z,8.48
2019-05-29T23:55:32.404Z,6.53
2019-05-29T23:58:01.972Z,9.55
